createdAt,value
2017-03-20T00:00:26.103Z,17.43
2017-03-20T00:00:54.357Z,17.42
2017-03-20T00:01:22.509Z,17.42
2017-03-20T00:01:50.770Z,17.46
2017-03-20T00:02:18.960Z,17.46
2017-03-20T00:02:47.158Z,17.46
2017-03-20T00:03:15.407Z,17.46
2017-03-20T00:03:43.495Z,17.52
2017-03-20T00:04:11.720Z,17.47
2017-03-20T00:04:39.837Z,17.52
2017-03-20T00:05:08.031Z,17.54
2017-03-20T00:05:36.107Z,17.45
2017-03-20T00:06:04.108Z,17.45
2017-03-20T00:06:32.179Z,17.45
2017-03-20T00:07:00.161Z,17.47
2017-03-20T00:07:28.364Z,17.46
2017-03-20T00:07:56.435Z,17.52
2017-03-20T00:08:24.615Z,17.47
2017-03-20T00:08:52.874Z,17.5
2017-03-20T00:09:21.067Z,17.5
2017-03-20T00:09:49.283Z,17.52
2017-03-20T00:10:17.402Z,17.43
2017-03-20T00:10:45.519Z,17.46
2017-03-20T00:11:13.669Z,17.57
2017-03-20T00:11:42.005Z,17.49
2017-03-20T00:12:10.166Z,17.45
2017-03-20T00:12:38.446Z,17.46
2017-03-20T00:13:06.692Z,17.46
2017-03-20T00:13:35.083Z,17.49
2017-03-20T00:14:03.134Z,17.46
2017-03-20T00:14:31.310Z,17.43
2017-03-20T00:14:59.538Z,17.5
2017-03-20T00:15:27.643Z,17.55
2017-03-20T00:15:55.932Z,17.46
2017-03-20T00:16:24.204Z,17.45
2017-03-20T00:16:52.409Z,17.52
2017-03-20T00:17:20.712Z,17.42
2017-03-20T00:17:48.962Z,17.46
2017-03-20T00:18:17.129Z,17.49
2017-03-20T00:18:45.413Z,17.52
2017-03-20T00:19:13.703Z,17.49
2017-03-20T00:19:42.478Z,17.47
2017-03-20T00:20:10.494Z,17.46
2017-03-20T00:20:38.700Z,17.49
2017-03-20T00:21:06.935Z,17.57
2017-03-20T00:21:34.890Z,17.47
2017-03-20T00:22:03.080Z,17.54
2017-03-20T00:22:31.317Z,17.5
2017-03-20T00:22:59.598Z,17.54
2017-03-20T00:23:27.887Z,17.54
2017-03-20T00:23:56.099Z,17.47
2017-03-20T00:24:24.178Z,17.52
2017-03-20T00:24:52.419Z,17.5
2017-03-20T00:25:20.700Z,17.5
2017-03-20T00:25:48.863Z,17.52
2017-03-20T00:26:17.100Z,17.47
2017-03-20T00:26:45.342Z,17.55
2017-03-20T00:27:13.541Z,17.49
2017-03-20T00:27:41.723Z,17.55
2017-03-20T00:28:09.786Z,17.54
2017-03-20T00:28:38.032Z,17.5
2017-03-20T00:29:06.265Z,17.5
2017-03-20T00:29:34.519Z,17.52
2017-03-20T00:30:02.690Z,17.47
2017-03-20T00:30:30.909Z,17.52
2017-03-20T00:30:59.176Z,17.57
2017-03-20T00:31:27.400Z,17.55
2017-03-20T00:31:55.602Z,17.52
2017-03-20T00:32:23.751Z,17.52
2017-03-20T00:32:52.043Z,17.55
2017-03-20T00:33:20.180Z,17.5
2017-03-20T00:33:48.469Z,17.54
2017-03-20T00:34:16.630Z,17.52
2017-03-20T00:34:44.922Z,17.49
2017-03-20T00:35:13.162Z,17.52
2017-03-20T00:35:41.392Z,17.49
2017-03-20T00:36:09.574Z,17.54
2017-03-20T00:36:37.824Z,17.46
2017-03-20T00:37:06.237Z,17.54
2017-03-20T00:37:34.503Z,17.54
2017-03-20T00:38:02.778Z,17.49
2017-03-20T00:38:30.886Z,17.55
2017-03-20T00:38:58.987Z,17.47
2017-03-20T00:39:27.168Z,17.43
2017-03-20T00:39:55.415Z,17.42
2017-03-20T00:40:23.536Z,17.46
2017-03-20T00:40:51.563Z,17.46
2017-03-20T00:41:19.770Z,17.42
2017-03-20T00:41:47.995Z,17.49
2017-03-20T00:42:16.314Z,17.54
2017-03-20T00:42:44.565Z,17.43
2017-03-20T00:43:12.745Z,17.49
2017-03-20T00:43:41.012Z,17.42
2017-03-20T00:44:09.195Z,17.45
2017-03-20T00:44:37.259Z,17.46
2017-03-20T00:45:05.395Z,17.43
2017-03-20T00:45:33.620Z,17.45
2017-03-20T00:46:01.787Z,17.49
2017-03-20T00:46:30.004Z,17.43
2017-03-20T00:46:58.198Z,17.45
2017-03-20T00:47:26.372Z,17.43
2017-03-20T00:47:54.604Z,17.46
2017-03-20T00:48:22.867Z,17.54
2017-03-20T00:48:51.134Z,17.49
2017-03-20T00:49:19.280Z,17.55
2017-03-20T00:49:47.548Z,17.54
2017-03-20T00:50:15.723Z,17.54
2017-03-20T00:50:43.805Z,17.52
2017-03-20T00:51:11.948Z,17.5
2017-03-20T00:51:40.031Z,17.49
2017-03-20T00:52:08.285Z,17.5
2017-03-20T00:52:36.545Z,17.54
2017-03-20T00:53:04.619Z,17.52
2017-03-20T00:53:32.891Z,17.52
2017-03-20T00:54:01.139Z,17.54
2017-03-20T00:54:29.165Z,17.5
2017-03-20T00:54:57.107Z,17.5
2017-03-20T00:55:25.299Z,17.54
2017-03-20T00:55:53.416Z,17.5
2017-03-20T00:56:21.658Z,17.62
2017-03-20T00:56:49.832Z,17.6
2017-03-20T00:57:18.067Z,17.6
2017-03-20T00:57:46.313Z,17.58
2017-03-20T00:58:14.592Z,17.65
2017-03-20T00:58:42.798Z,17.63
2017-03-20T00:59:11.013Z,17.62
2017-03-20T00:59:39.250Z,17.52
2017-03-20T01:00:07.486Z,17.66
2017-03-20T01:00:35.645Z,17.63
2017-03-20T01:01:03.780Z,17.65
2017-03-20T01:01:32.006Z,17.65
2017-03-20T01:02:00.185Z,17.68
2017-03-20T01:02:28.354Z,17.63
2017-03-20T01:02:56.508Z,17.68
2017-03-20T01:03:24.802Z,17.66
2017-03-20T01:03:52.770Z,17.71
2017-03-20T01:04:20.895Z,17.68
2017-03-20T01:04:49.036Z,17.65
2017-03-20T01:05:17.311Z,17.65
2017-03-20T01:05:45.482Z,17.63
2017-03-20T01:06:13.672Z,17.63
2017-03-20T01:06:41.920Z,17.58
2017-03-20T01:07:10.273Z,17.66
2017-03-20T01:07:38.484Z,17.69
2017-03-20T01:08:06.755Z,17.65
2017-03-20T01:08:35.789Z,17.58
2017-03-20T01:09:03.983Z,17.65
2017-03-20T01:09:32.117Z,17.65
2017-03-20T01:10:00.406Z,17.65
2017-03-20T01:10:28.724Z,17.68
2017-03-20T01:10:56.974Z,17.68
2017-03-20T01:11:25.148Z,17.66
2017-03-20T01:11:53.163Z,17.66
2017-03-20T01:12:21.613Z,17.68
2017-03-20T01:12:49.860Z,17.68
2017-03-20T01:13:18.038Z,17.65
2017-03-20T01:13:46.192Z,17.65
2017-03-20T01:14:14.444Z,17.65
2017-03-20T01:14:42.615Z,17.71
2017-03-20T01:15:10.852Z,17.66
2017-03-20T01:15:38.858Z,17.66
2017-03-20T01:16:07.147Z,17.71
2017-03-20T01:16:35.295Z,17.6
2017-03-20T01:17:03.619Z,17.63
2017-03-20T01:17:31.782Z,17.66
2017-03-20T01:18:00.050Z,17.71
2017-03-20T01:18:28.315Z,17.73
2017-03-20T01:18:56.274Z,17.71
2017-03-20T01:19:24.556Z,17.74
2017-03-20T01:19:52.802Z,17.68
2017-03-20T01:20:20.964Z,17.66
2017-03-20T01:20:49.101Z,17.6
2017-03-20T01:21:17.204Z,17.65
2017-03-20T01:21:45.470Z,17.63
2017-03-20T01:22:13.803Z,17.58
2017-03-20T01:22:42.120Z,17.68
2017-03-20T01:23:10.117Z,17.6
2017-03-20T01:23:38.273Z,17.57
2017-03-20T01:24:06.351Z,17.55
2017-03-20T01:24:34.498Z,17.54
2017-03-20T01:25:02.763Z,17.55
2017-03-20T01:25:30.901Z,17.54
2017-03-20T01:25:59.136Z,17.52
2017-03-20T01:26:27.423Z,17.58
2017-03-20T01:26:55.603Z,17.55
2017-03-20T01:27:23.792Z,17.54
2017-03-20T01:27:51.830Z,17.52
2017-03-20T01:28:20.065Z,17.54
2017-03-20T01:28:48.212Z,17.52
2017-03-20T01:29:16.345Z,17.47
2017-03-20T01:29:44.597Z,17.55
2017-03-20T01:30:12.788Z,17.5
2017-03-20T01:30:40.936Z,17.54
2017-03-20T01:31:09.039Z,17.63
2017-03-20T01:31:37.304Z,17.58
2017-03-20T01:32:05.614Z,17.55
2017-03-20T01:32:33.962Z,17.54
2017-03-20T01:33:02.077Z,17.5
2017-03-20T01:33:30.259Z,17.62
2017-03-20T01:33:58.406Z,17.63
2017-03-20T01:34:26.709Z,17.6
2017-03-20T01:34:54.957Z,17.62
2017-03-20T01:35:23.192Z,17.65
2017-03-20T01:35:51.448Z,17.62
2017-03-20T01:36:19.676Z,17.62
2017-03-20T01:36:47.942Z,17.6
2017-03-20T01:37:16.198Z,17.62
2017-03-20T01:37:44.443Z,17.62
2017-03-20T01:38:12.645Z,17.63
2017-03-20T01:38:40.883Z,17.57
2017-03-20T01:39:09.072Z,17.58
2017-03-20T01:39:37.240Z,17.58
2017-03-20T01:40:05.526Z,17.54
2017-03-20T01:40:33.788Z,17.54
2017-03-20T01:41:02.019Z,17.55
2017-03-20T01:41:30.332Z,17.6
2017-03-20T01:41:58.573Z,17.52
2017-03-20T01:42:26.895Z,17.62
2017-03-20T01:42:55.060Z,17.5
2017-03-20T01:43:23.337Z,17.54
2017-03-20T01:43:51.416Z,17.52
2017-03-20T01:44:19.677Z,17.54
2017-03-20T01:44:47.884Z,17.6
2017-03-20T01:45:16.160Z,17.52
2017-03-20T01:45:44.323Z,17.62
2017-03-20T01:46:12.536Z,17.5
2017-03-20T01:46:40.785Z,17.54
2017-03-20T01:47:08.907Z,17.58
2017-03-20T01:47:37.100Z,17.52
2017-03-20T01:48:05.346Z,17.54
2017-03-20T01:48:33.614Z,17.52
2017-03-20T01:49:01.790Z,17.52
2017-03-20T01:49:29.975Z,17.52
2017-03-20T01:49:58.154Z,17.52
2017-03-20T01:50:26.330Z,17.55
2017-03-20T01:50:54.589Z,17.52
2017-03-20T01:51:22.649Z,17.46
2017-03-20T01:51:50.906Z,17.55
2017-03-20T01:52:19.288Z,17.54
2017-03-20T01:52:47.466Z,17.49
2017-03-20T01:53:15.583Z,17.5
2017-03-20T01:53:43.743Z,17.54
2017-03-20T01:54:11.937Z,17.47
2017-03-20T01:54:39.964Z,17.58
2017-03-20T01:55:08.116Z,17.54
2017-03-20T01:55:36.373Z,17.52
2017-03-20T01:56:04.593Z,17.5
2017-03-20T01:56:32.670Z,17.5
2017-03-20T01:57:00.896Z,17.54
2017-03-20T01:57:28.926Z,17.52
2017-03-20T01:57:57.176Z,17.6
2017-03-20T01:58:25.419Z,17.46
2017-03-20T01:58:53.607Z,17.5
2017-03-20T01:59:21.674Z,17.55
2017-03-20T01:59:49.948Z,17.5
2017-03-20T02:00:18.212Z,17.5
2017-03-20T02:00:46.385Z,17.54
2017-03-20T02:01:14.345Z,17.54
2017-03-20T02:01:42.581Z,17.6
2017-03-20T02:02:10.856Z,17.63
2017-03-20T02:02:39.233Z,17.62
2017-03-20T02:03:07.497Z,17.65
2017-03-20T02:03:35.771Z,17.65
2017-03-20T02:04:04.032Z,17.63
2017-03-20T02:04:32.336Z,17.68
2017-03-20T02:05:00.581Z,17.62
2017-03-20T02:05:28.744Z,17.68
2017-03-20T02:05:56.907Z,17.68
2017-03-20T02:06:25.069Z,17.68
2017-03-20T02:06:53.149Z,17.66
2017-03-20T02:07:21.122Z,17.68
2017-03-20T02:07:49.303Z,17.65
2017-03-20T02:08:17.389Z,17.65
2017-03-20T02:08:45.635Z,17.71
2017-03-20T02:09:13.823Z,17.62
2017-03-20T02:09:41.918Z,17.63
2017-03-20T02:10:10.206Z,17.6
2017-03-20T02:10:38.480Z,17.62
2017-03-20T02:11:06.738Z,17.6
2017-03-20T02:11:34.783Z,17.54
2017-03-20T02:12:02.927Z,17.58
2017-03-20T02:12:31.227Z,17.54
2017-03-20T02:12:59.387Z,17.47
2017-03-20T02:13:27.438Z,17.5
2017-03-20T02:13:55.621Z,17.54
2017-03-20T02:14:23.746Z,17.52
2017-03-20T02:14:51.976Z,17.55
2017-03-20T02:15:20.073Z,17.54
2017-03-20T02:15:48.327Z,17.49
2017-03-20T02:16:16.589Z,17.52
2017-03-20T02:16:44.836Z,17.66
2017-03-20T02:17:13.065Z,17.54
2017-03-20T02:17:41.146Z,17.57
2017-03-20T02:18:09.317Z,17.57
2017-03-20T02:18:37.576Z,17.66
2017-03-20T02:19:05.727Z,17.62
2017-03-20T02:19:33.934Z,17.65
2017-03-20T02:20:02.204Z,17.63
2017-03-20T02:20:30.386Z,17.66
2017-03-20T02:20:58.595Z,17.65
2017-03-20T02:21:26.650Z,17.68
2017-03-20T02:21:54.816Z,17.65
2017-03-20T02:22:23.109Z,17.69
2017-03-20T02:22:51.174Z,17.71
2017-03-20T02:23:19.110Z,17.76
2017-03-20T02:23:47.364Z,17.73
2017-03-20T02:24:15.506Z,17.68
2017-03-20T02:24:43.816Z,17.66
2017-03-20T02:25:11.882Z,17.68
2017-03-20T02:25:40.112Z,17.62
2017-03-20T02:26:08.374Z,17.66
2017-03-20T02:26:36.586Z,17.65
2017-03-20T02:27:04.677Z,17.65
2017-03-20T02:27:33.062Z,17.66
2017-03-20T02:28:01.323Z,17.66
2017-03-20T02:28:29.588Z,17.76
2017-03-20T02:28:57.750Z,17.66
2017-03-20T02:29:25.939Z,17.62
2017-03-20T02:29:54.195Z,17.65
2017-03-20T02:30:22.424Z,17.65
2017-03-20T02:30:50.658Z,17.65
2017-03-20T02:31:18.944Z,17.66
2017-03-20T02:31:46.990Z,17.65
2017-03-20T02:32:15.126Z,17.71
2017-03-20T02:32:43.553Z,17.65
2017-03-20T02:33:11.729Z,17.65
2017-03-20T02:33:39.866Z,17.58
2017-03-20T02:34:08.118Z,17.6
2017-03-20T02:34:36.322Z,17.6
2017-03-20T02:35:04.400Z,17.58
2017-03-20T02:35:32.551Z,17.52
2017-03-20T02:36:00.718Z,17.5
2017-03-20T02:36:28.898Z,17.52
2017-03-20T02:36:57.141Z,17.49
2017-03-20T02:37:25.251Z,17.54
2017-03-20T02:37:53.547Z,17.43
2017-03-20T02:38:21.748Z,17.5
2017-03-20T02:38:50.035Z,17.45
2017-03-20T02:39:18.233Z,17.52
2017-03-20T02:39:46.496Z,17.4
2017-03-20T02:40:14.791Z,17.46
2017-03-20T02:40:43.027Z,17.45
2017-03-20T02:41:11.060Z,17.4
2017-03-20T02:41:39.223Z,17.4
2017-03-20T02:42:07.493Z,17.38
2017-03-20T02:42:35.714Z,17.46
2017-03-20T02:43:04.063Z,17.43
2017-03-20T02:43:32.230Z,17.49
2017-03-20T02:44:00.323Z,17.39
2017-03-20T02:44:28.578Z,17.45
2017-03-20T02:44:56.835Z,17.4
2017-03-20T02:45:24.984Z,17.38
2017-03-20T02:45:53.244Z,17.4
2017-03-20T02:46:21.496Z,17.38
2017-03-20T02:46:49.820Z,17.38
2017-03-20T02:47:17.938Z,17.35
2017-03-20T02:47:46.082Z,17.35
2017-03-20T02:48:14.344Z,17.42
2017-03-20T02:48:42.501Z,17.38
2017-03-20T02:49:10.613Z,17.35
2017-03-20T02:49:38.877Z,17.45
2017-03-20T02:50:06.905Z,17.3
2017-03-20T02:50:35.155Z,17.38
2017-03-20T02:51:03.263Z,17.3
2017-03-20T02:51:31.472Z,17.32
2017-03-20T02:51:59.636Z,17.36
2017-03-20T02:52:27.882Z,17.32
2017-03-20T02:52:56.157Z,17.36
2017-03-20T02:53:24.378Z,17.38
2017-03-20T02:53:52.635Z,17.35
2017-03-20T02:54:20.860Z,17.35
2017-03-20T02:54:49.114Z,17.35
2017-03-20T02:55:17.354Z,17.35
2017-03-20T02:55:45.578Z,17.35
2017-03-20T02:56:13.741Z,17.35
2017-03-20T02:56:41.864Z,17.32
2017-03-20T02:57:10.123Z,17.32
2017-03-20T02:57:38.385Z,17.35
2017-03-20T02:58:06.469Z,17.38
2017-03-20T02:58:34.772Z,17.38
2017-03-20T02:59:03.067Z,17.38
2017-03-20T02:59:31.374Z,17.4
2017-03-20T02:59:59.680Z,17.38
2017-03-20T03:00:27.959Z,17.36
2017-03-20T03:00:56.151Z,17.46
2017-03-20T03:01:24.209Z,17.42
2017-03-20T03:01:52.445Z,17.39
2017-03-20T03:02:20.715Z,17.38
2017-03-20T03:02:48.864Z,17.35
2017-03-20T03:03:17.038Z,17.42
2017-03-20T03:03:45.351Z,17.46
2017-03-20T03:04:13.572Z,17.4
2017-03-20T03:04:41.825Z,17.46
2017-03-20T03:05:10.007Z,17.36
2017-03-20T03:05:38.001Z,17.46
2017-03-20T03:06:06.261Z,17.43
2017-03-20T03:06:34.424Z,17.36
2017-03-20T03:07:02.592Z,17.39
2017-03-20T03:07:30.867Z,17.38
2017-03-20T03:07:59.137Z,17.42
2017-03-20T03:08:27.392Z,17.43
2017-03-20T03:08:55.562Z,17.45
2017-03-20T03:09:23.745Z,17.39
2017-03-20T03:09:51.886Z,17.35
2017-03-20T03:10:20.115Z,17.35
2017-03-20T03:10:48.306Z,17.42
2017-03-20T03:11:16.462Z,17.42
2017-03-20T03:11:44.729Z,17.4
2017-03-20T03:12:12.932Z,17.4
2017-03-20T03:12:41.211Z,17.39
2017-03-20T03:13:09.420Z,17.36
2017-03-20T03:13:37.584Z,17.38
2017-03-20T03:14:05.856Z,17.31
2017-03-20T03:14:34.142Z,17.36
2017-03-20T03:15:02.413Z,17.39
2017-03-20T03:15:30.731Z,17.32
2017-03-20T03:15:59.014Z,17.35
2017-03-20T03:16:27.136Z,17.32
2017-03-20T03:16:55.348Z,17.32
2017-03-20T03:17:23.631Z,17.36
2017-03-20T03:17:51.657Z,17.43
2017-03-20T03:18:20.157Z,17.38
2017-03-20T03:18:48.461Z,17.35
2017-03-20T03:19:16.654Z,17.31
2017-03-20T03:19:44.790Z,17.45
2017-03-20T03:20:13.023Z,17.31
2017-03-20T03:20:41.321Z,17.35
2017-03-20T03:21:09.336Z,17.36
2017-03-20T03:21:37.535Z,17.35
2017-03-20T03:22:05.641Z,17.27
2017-03-20T03:22:33.807Z,17.31
2017-03-20T03:23:02.469Z,17.3
2017-03-20T03:23:43.476Z,17.27
2017-03-20T03:24:11.736Z,17.3
2017-03-20T03:24:40.026Z,17.38
2017-03-20T03:25:08.360Z,17.32
2017-03-20T03:25:36.462Z,17.32
2017-03-20T03:26:04.447Z,17.3
2017-03-20T03:26:32.578Z,17.31
2017-03-20T03:27:00.850Z,17.3
2017-03-20T03:27:29.044Z,17.35
2017-03-20T03:27:57.162Z,17.35
2017-03-20T03:28:25.385Z,17.27
2017-03-20T03:28:53.514Z,17.35
2017-03-20T03:29:21.685Z,17.22
2017-03-20T03:29:49.898Z,17.21
2017-03-20T03:30:17.883Z,17.22
2017-03-20T03:30:45.921Z,17.21
2017-03-20T03:31:14.043Z,17.15
2017-03-20T03:31:42.169Z,17.22
2017-03-20T03:32:10.276Z,17.21
2017-03-20T03:32:38.377Z,17.21
2017-03-20T03:33:06.653Z,17.27
2017-03-20T03:33:34.858Z,17.27
2017-03-20T03:34:02.926Z,17.22
2017-03-20T03:34:30.952Z,17.22
2017-03-20T03:34:59.191Z,17.22
2017-03-20T03:35:27.295Z,17.24
2017-03-20T03:35:55.377Z,17.21
2017-03-20T03:36:23.512Z,17.25
2017-03-20T03:36:51.602Z,17.22
2017-03-20T03:37:19.853Z,17.3
2017-03-20T03:37:47.915Z,17.22
2017-03-20T03:38:16.346Z,17.22
2017-03-20T03:38:44.368Z,17.2
2017-03-20T03:39:12.486Z,17.12
2017-03-20T03:39:40.661Z,17.1
2017-03-20T03:40:08.792Z,17.1
2017-03-20T03:40:36.927Z,17.2
2017-03-20T03:41:05.039Z,17.2
2017-03-20T03:41:33.191Z,17.24
2017-03-20T03:42:01.156Z,17.24
2017-03-20T03:42:29.385Z,17.24
2017-03-20T03:42:57.548Z,17.27
2017-03-20T03:43:25.921Z,17.22
2017-03-20T03:43:54.108Z,17.21
2017-03-20T03:44:22.196Z,17.24
2017-03-20T03:44:50.224Z,17.22
2017-03-20T03:45:18.493Z,17.27
2017-03-20T03:45:46.739Z,17.22
2017-03-20T03:46:15.015Z,17.22
2017-03-20T03:46:43.086Z,17.21
2017-03-20T03:47:11.226Z,17.35
2017-03-20T03:47:39.368Z,17.35
2017-03-20T03:48:07.638Z,17.28
2017-03-20T03:48:35.755Z,17.27
2017-03-20T03:49:03.839Z,17.36
2017-03-20T03:49:32.053Z,17.3
2017-03-20T03:50:00.357Z,17.38
2017-03-20T03:50:28.552Z,17.32
2017-03-20T03:50:56.573Z,17.32
2017-03-20T03:51:24.713Z,17.31
2017-03-20T03:51:52.761Z,17.3
2017-03-20T03:52:20.969Z,17.36
2017-03-20T03:52:49.085Z,17.38
2017-03-20T03:53:17.123Z,17.32
2017-03-20T03:53:45.339Z,17.3
2017-03-20T03:54:13.530Z,17.38
2017-03-20T03:54:41.623Z,17.3
2017-03-20T03:55:09.833Z,17.32
2017-03-20T03:55:38.048Z,17.39
2017-03-20T03:56:06.247Z,17.36
2017-03-20T03:56:34.483Z,17.43
2017-03-20T03:57:02.611Z,17.4
2017-03-20T03:57:30.718Z,17.46
2017-03-20T03:57:58.950Z,17.4
2017-03-20T03:58:27.207Z,17.36
2017-03-20T03:58:55.391Z,17.43
2017-03-20T03:59:23.683Z,17.42
2017-03-20T03:59:51.869Z,17.39
2017-03-20T04:00:20.132Z,17.43
2017-03-20T04:00:48.362Z,17.36
2017-03-20T04:01:16.477Z,17.39
2017-03-20T04:01:44.743Z,17.42
2017-03-20T04:02:12.964Z,17.39
2017-03-20T04:02:41.062Z,17.38
2017-03-20T04:03:09.139Z,17.4
2017-03-20T04:03:37.274Z,17.38
2017-03-20T04:04:05.512Z,17.4
2017-03-20T04:04:33.752Z,17.4
2017-03-20T04:05:01.761Z,17.38
2017-03-20T04:05:29.972Z,17.4
2017-03-20T04:05:58.220Z,17.31
2017-03-20T04:06:26.466Z,17.4
2017-03-20T04:06:54.715Z,17.36
2017-03-20T04:07:22.929Z,17.42
2017-03-20T04:07:51.109Z,17.31
2017-03-20T04:08:19.326Z,17.42
2017-03-20T04:08:47.567Z,17.46
2017-03-20T04:09:15.696Z,17.42
2017-03-20T04:09:43.908Z,17.39
2017-03-20T04:10:11.940Z,17.35
2017-03-20T04:10:40.023Z,17.38
2017-03-20T04:11:08.236Z,17.42
2017-03-20T04:11:36.441Z,17.39
2017-03-20T04:12:04.566Z,17.31
2017-03-20T04:12:32.654Z,17.38
2017-03-20T04:13:00.865Z,17.43
2017-03-20T04:13:29.215Z,17.42
2017-03-20T04:13:57.278Z,17.35
2017-03-20T04:14:25.562Z,17.31
2017-03-20T04:14:53.774Z,17.42
2017-03-20T04:15:22.068Z,17.36
2017-03-20T04:15:50.093Z,17.36
2017-03-20T04:16:18.310Z,17.3
2017-03-20T04:16:46.460Z,17.39
2017-03-20T04:17:14.642Z,17.4
2017-03-20T04:17:42.752Z,17.39
2017-03-20T04:18:10.961Z,17.36
2017-03-20T04:18:39.176Z,17.38
2017-03-20T04:19:07.373Z,17.38
2017-03-20T04:19:35.685Z,17.39
2017-03-20T04:20:03.817Z,17.31
2017-03-20T04:20:32.062Z,17.31
2017-03-20T04:21:00.177Z,17.39
2017-03-20T04:21:28.403Z,17.39
2017-03-20T04:21:56.583Z,17.43
2017-03-20T04:22:24.745Z,17.39
2017-03-20T04:22:52.867Z,17.39
2017-03-20T04:23:20.997Z,17.39
2017-03-20T04:23:49.175Z,17.36
2017-03-20T04:24:17.342Z,17.4
2017-03-20T04:24:45.465Z,17.32
2017-03-20T04:25:13.494Z,17.39
2017-03-20T04:25:41.679Z,17.32
2017-03-20T04:26:09.817Z,17.4
2017-03-20T04:26:38.043Z,17.46
2017-03-20T04:27:06.251Z,17.39
2017-03-20T04:27:34.442Z,17.38
2017-03-20T04:28:02.662Z,17.43
2017-03-20T04:28:30.773Z,17.45
2017-03-20T04:28:58.917Z,17.4
2017-03-20T04:29:26.735Z,17.43
2017-03-20T04:29:55.057Z,17.45
2017-03-20T04:30:23.324Z,17.39
2017-03-20T04:30:51.474Z,17.4
2017-03-20T04:31:19.504Z,17.42
2017-03-20T04:31:47.646Z,17.43
2017-03-20T04:32:15.624Z,17.45
2017-03-20T04:32:43.817Z,17.47
2017-03-20T04:33:12.056Z,17.49
2017-03-20T04:33:40.222Z,17.47
2017-03-20T04:34:08.450Z,17.39
2017-03-20T04:34:36.579Z,17.47
2017-03-20T04:35:04.733Z,17.46
2017-03-20T04:35:32.971Z,17.42
2017-03-20T04:36:01.122Z,17.42
2017-03-20T04:36:29.199Z,17.4
2017-03-20T04:36:57.451Z,17.45
2017-03-20T04:37:25.693Z,17.39
2017-03-20T04:37:53.801Z,17.36
2017-03-20T04:38:21.936Z,17.39
2017-03-20T04:38:50.059Z,17.43
2017-03-20T04:39:18.204Z,17.43
2017-03-20T04:39:46.402Z,17.4
2017-03-20T04:40:14.644Z,17.42
2017-03-20T04:40:42.742Z,17.39
2017-03-20T04:41:10.831Z,17.38
2017-03-20T04:41:38.847Z,17.36
2017-03-20T04:42:07.020Z,17.35
2017-03-20T04:42:35.268Z,17.43
2017-03-20T04:43:03.434Z,17.38
2017-03-20T04:43:31.530Z,17.38
2017-03-20T04:43:59.653Z,17.43
2017-03-20T04:44:27.662Z,17.4
2017-03-20T04:44:55.980Z,17.4
2017-03-20T04:45:24.101Z,17.36
2017-03-20T04:45:52.225Z,17.47
2017-03-20T04:46:20.287Z,17.43
2017-03-20T04:46:48.402Z,17.45
2017-03-20T04:47:16.432Z,17.38
2017-03-20T04:47:44.747Z,17.43
2017-03-20T04:48:12.773Z,17.38
2017-03-20T04:48:40.983Z,17.4
2017-03-20T04:49:09.188Z,17.42
2017-03-20T04:49:37.347Z,17.49
2017-03-20T04:50:05.666Z,17.42
2017-03-20T04:50:33.820Z,17.38
2017-03-20T04:51:01.994Z,17.35
2017-03-20T04:51:30.196Z,17.45
2017-03-20T04:51:58.414Z,17.4
2017-03-20T04:52:26.526Z,17.46
2017-03-20T04:52:54.753Z,17.4
2017-03-20T04:53:22.930Z,17.42
2017-03-20T04:53:51.172Z,17.36
2017-03-20T04:54:19.347Z,17.46
2017-03-20T04:54:47.620Z,17.38
2017-03-20T04:55:15.941Z,17.42
2017-03-20T04:55:44.047Z,17.36
2017-03-20T04:56:12.295Z,17.46
2017-03-20T04:56:40.332Z,17.43
2017-03-20T04:57:08.520Z,17.43
2017-03-20T04:57:36.704Z,17.46
2017-03-20T04:58:04.852Z,17.49
2017-03-20T04:58:32.903Z,17.46
2017-03-20T04:59:01.064Z,17.46
2017-03-20T04:59:29.299Z,17.47
2017-03-20T04:59:57.502Z,17.45
2017-03-20T05:00:25.703Z,17.5
2017-03-20T05:00:53.737Z,17.46
2017-03-20T05:01:21.906Z,17.49
2017-03-20T05:01:50.064Z,17.45
2017-03-20T05:02:18.289Z,17.4
2017-03-20T05:02:46.561Z,17.49
2017-03-20T05:03:14.809Z,17.46
2017-03-20T05:03:42.912Z,17.45
2017-03-20T05:04:11.006Z,17.49
2017-03-20T05:04:39.007Z,17.52
2017-03-20T05:05:07.264Z,17.49
2017-03-20T05:05:35.275Z,17.47
2017-03-20T05:06:03.287Z,17.47
2017-03-20T05:06:31.448Z,17.54
2017-03-20T05:06:59.654Z,17.49
2017-03-20T05:07:27.715Z,17.46
2017-03-20T05:07:55.851Z,17.55
2017-03-20T05:08:24.036Z,17.5
2017-03-20T05:08:52.274Z,17.55
2017-03-20T05:09:20.461Z,17.5
2017-03-20T05:09:48.562Z,17.55
2017-03-20T05:10:17.077Z,17.5
2017-03-20T05:10:45.177Z,17.55
2017-03-20T05:11:13.293Z,17.52
2017-03-20T05:11:41.436Z,17.54
2017-03-20T05:12:09.634Z,17.49
2017-03-20T05:12:37.758Z,17.5
2017-03-20T05:13:05.964Z,17.5
2017-03-20T05:13:34.067Z,17.46
2017-03-20T05:14:02.266Z,17.54
2017-03-20T05:14:30.528Z,17.52
2017-03-20T05:14:58.741Z,17.55
2017-03-20T05:15:26.954Z,17.45
2017-03-20T05:15:55.147Z,17.5
2017-03-20T05:16:23.327Z,17.55
2017-03-20T05:16:51.398Z,17.49
2017-03-20T05:17:19.595Z,17.54
2017-03-20T05:17:47.683Z,17.57
2017-03-20T05:18:15.808Z,17.55
2017-03-20T05:18:44.016Z,17.55
2017-03-20T05:19:12.155Z,17.5
2017-03-20T05:19:40.483Z,17.55
2017-03-20T05:20:08.930Z,17.52
2017-03-20T05:20:37.167Z,17.49
2017-03-20T05:21:05.386Z,17.52
2017-03-20T05:21:33.513Z,17.54
2017-03-20T05:22:01.677Z,17.52
2017-03-20T05:22:29.837Z,17.5
2017-03-20T05:22:58.132Z,17.52
2017-03-20T05:23:26.345Z,17.6
2017-03-20T05:23:54.365Z,17.49
2017-03-20T05:24:22.444Z,17.55
2017-03-20T05:24:50.719Z,17.54
2017-03-20T05:25:19.132Z,17.5
2017-03-20T05:25:47.325Z,17.52
2017-03-20T05:26:15.551Z,17.5
2017-03-20T05:26:43.762Z,17.47
2017-03-20T05:27:11.966Z,17.54
2017-03-20T05:27:40.142Z,17.49
2017-03-20T05:28:08.316Z,17.52
2017-03-20T05:28:36.427Z,17.49
2017-03-20T05:29:04.533Z,17.57
2017-03-20T05:29:32.796Z,17.5
2017-03-20T05:30:00.937Z,17.49
2017-03-20T05:30:29.342Z,17.54
2017-03-20T05:30:57.590Z,17.54
2017-03-20T05:31:25.674Z,17.54
2017-03-20T05:31:53.888Z,17.5
2017-03-20T05:32:22.097Z,17.52
2017-03-20T05:32:50.273Z,17.46
2017-03-20T05:33:18.289Z,17.47
2017-03-20T05:33:46.540Z,17.49
2017-03-20T05:34:14.798Z,17.49
2017-03-20T05:34:42.969Z,17.52
2017-03-20T05:35:12.621Z,17.55
2017-03-20T05:35:40.828Z,17.5
2017-03-20T05:36:09.023Z,17.49
2017-03-20T05:37:18.485Z,17.43
2017-03-20T05:37:46.629Z,17.49
2017-03-20T05:38:14.755Z,17.49
2017-03-20T05:38:42.976Z,17.42
2017-03-20T05:39:11.081Z,17.46
2017-03-20T05:39:39.274Z,17.45
2017-03-20T05:40:07.405Z,17.5
2017-03-20T05:40:35.554Z,17.43
2017-03-20T05:41:03.758Z,17.47
2017-03-20T05:41:31.862Z,17.43
2017-03-20T05:42:00.007Z,17.42
2017-03-20T05:42:28.136Z,17.5
2017-03-20T05:42:56.252Z,17.46
2017-03-20T05:43:24.358Z,17.49
2017-03-20T05:43:52.439Z,17.47
2017-03-20T05:44:20.737Z,17.52
2017-03-20T05:44:48.926Z,17.52
2017-03-20T05:45:17.161Z,17.46
2017-03-20T05:45:45.438Z,17.58
2017-03-20T05:46:13.636Z,17.57
2017-03-20T05:46:41.749Z,17.47
2017-03-20T05:47:10.068Z,17.46
2017-03-20T05:47:38.212Z,17.46
2017-03-20T05:48:06.367Z,17.54
2017-03-20T05:48:34.623Z,17.49
2017-03-20T05:49:02.861Z,17.43
2017-03-20T05:49:31.004Z,17.46
2017-03-20T05:49:59.089Z,17.49
2017-03-20T05:50:27.223Z,17.43
2017-03-20T05:50:55.396Z,17.47
2017-03-20T05:51:23.482Z,17.43
2017-03-20T05:51:51.647Z,17.49
2017-03-20T05:52:19.769Z,17.47
2017-03-20T05:52:48.028Z,17.36
2017-03-20T05:53:16.307Z,17.43
2017-03-20T05:53:44.832Z,17.4
2017-03-20T05:54:13.094Z,17.46
2017-03-20T05:54:41.239Z,17.4
2017-03-20T05:55:09.519Z,17.5
2017-03-20T05:55:37.675Z,17.47
2017-03-20T05:56:05.979Z,17.42
2017-03-20T05:56:34.204Z,17.43
2017-03-20T05:57:02.346Z,17.49
2017-03-20T05:57:30.574Z,17.49
2017-03-20T05:57:58.817Z,17.4
2017-03-20T05:58:26.785Z,17.46
2017-03-20T05:58:55.118Z,17.46
2017-03-20T05:59:23.363Z,17.46
2017-03-20T05:59:51.543Z,17.5
2017-03-20T06:00:19.529Z,17.46
2017-03-20T06:00:47.687Z,17.46
2017-03-20T06:01:15.938Z,17.43
2017-03-20T06:01:44.227Z,17.5
2017-03-20T06:02:12.500Z,17.42
2017-03-20T06:02:40.761Z,17.43
2017-03-20T06:03:08.976Z,17.5
2017-03-20T06:03:37.139Z,17.39
2017-03-20T06:04:05.352Z,17.5
2017-03-20T06:04:33.505Z,17.39
2017-03-20T06:05:01.670Z,17.43
2017-03-20T06:05:29.800Z,17.39
2017-03-20T06:05:57.950Z,17.35